sensor_id;sensor_type;location;lat;lon;timestamp;pressure;altitude;pressure_sealevel;temperature;humidity
66196;BME280;53000;45.182;5.736;2022-07-21T00:00:59;99597.50;;;30.21;37.01
66196;BME280;53000;45.182;5.736;2022-07-21T00:03:24;99592.19;;;30.20;37.37
66196;BME280;53000;45.182;5.736;2022-07-21T00:05:50;99598.88;;;30.18;37.52
66196;BME280;53000;45.182;5.736;2022-07-21T00:08:15;99591.66;;;30.17;37.51
66196;BME280;53000;45.182;5.736;2022-07-21T00:10:41;99593.63;;;30.17;36.78
66196;BME280;53000;45.182;5.736;2022-07-21T00:13:06;99596.97;;;30.14;37.38
66196;BME280;53000;45.182;5.736;2022-07-21T00:15:32;99593.34;;;30.13;36.95
66196;BME280;53000;45.182;5.736;2022-07-21T00:17:58;99598.94;;;30.13;37.71
66196;BME280;53000;45.182;5.736;2022-07-21T00:20:24;99608.69;;;30.16;37.18
66196;BME280;53000;45.182;5.736;2022-07-21T00:22:50;99598.41;;;30.11;37.29
66196;BME280;53000;45.182;5.736;2022-07-21T00:25:16;99610.69;;;30.10;37.34
66196;BME280;53000;45.182;5.736;2022-07-21T00:27:41;99596.47;;;30.07;37.09
66196;BME280;53000;45.182;5.736;2022-07-21T00:30:08;99595.94;;;30.05;37.36
66196;BME280;53000;45.182;5.736;2022-07-21T00:32:34;99594.50;;;30.07;37.41
66196;BME280;53000;45.182;5.736;2022-07-21T00:35:01;99597.31;;;30.07;37.51
66196;BME280;53000;45.182;5.736;2022-07-21T00:37:26;99590.34;;;30.05;37.62
66196;BME280;53000;45.182;5.736;2022-07-21T00:39:53;99598.72;;;30.05;37.51
66196;BME280;53000;45.182;5.736;2022-07-21T00:42:23;99603.75;;;30.03;37.30
66196;BME280;53000;45.182;5.736;2022-07-21T00:44:50;99594.31;;;29.99;37.78
66196;BME280;53000;45.182;5.736;2022-07-21T00:47:19;99602.19;;;29.91;37.67
66196;BME280;53000;45.182;5.736;2022-07-21T00:49:44;99589.38;;;29.85;37.75
66196;BME280;53000;45.182;5.736;2022-07-21T00:52:10;99595.22;;;29.89;38.18
66196;BME280;53000;45.182;5.736;2022-07-21T00:54:35;99598.03;;;29.89;37.70
66196;BME280;53000;45.182;5.736;2022-07-21T00:57:02;99594.38;;;29.88;38.00
66196;BME280;53000;45.182;5.736;2022-07-21T00:59:29;99604.97;;;29.91;37.68
66196;BME280;53000;45.182;5.736;2022-07-21T01:01:55;99591.03;;;29.91;37.65
66196;BME280;53000;45.182;5.736;2022-07-21T01:04:21;99600.22;;;29.92;38.63
66196;BME280;53000;45.182;5.736;2022-07-21T01:06:47;99599.66;;;29.90;37.77
66196;BME280;53000;45.182;5.736;2022-07-21T01:09:13;99590.44;;;29.94;37.76
66196;BME280;53000;45.182;5.736;2022-07-21T01:11:39;99597.16;;;29.93;37.83
66196;BME280;53000;45.182;5.736;2022-07-21T01:14:05;99598.25;;;29.92;37.65
66196;BME280;53000;45.182;5.736;2022-07-21T01:16:31;99593.00;;;29.86;37.47
66196;BME280;53000;45.182;5.736;2022-07-21T01:18:57;99591.09;;;29.81;37.88
66196;BME280;53000;45.182;5.736;2022-07-21T01:21:30;99595.84;;;29.81;37.89
66196;BME280;53000;45.182;5.736;2022-07-21T01:23:56;99588.88;;;29.78;38.77
66196;BME280;53000;45.182;5.736;2022-07-21T01:26:21;99586.66;;;29.75;38.59
66196;BME280;53000;45.182;5.736;2022-07-21T01:28:47;99589.72;;;29.73;38.21
66196;BME280;53000;45.182;5.736;2022-07-21T01:31:12;99587.47;;;29.75;38.17
66196;BME280;53000;45.182;5.736;2022-07-21T01:33:38;99584.13;;;29.79;37.94
66196;BME280;53000;45.182;5.736;2022-07-21T01:36:03;99589.72;;;29.79;38.58
66196;BME280;53000;45.182;5.736;2022-07-21T01:38:29;99574.13;;;29.72;38.02
66196;BME280;53000;45.182;5.736;2022-07-21T01:41:29;99586.69;;;29.70;38.24
66196;BME280;53000;45.182;5.736;2022-07-21T01:44:03;99583.91;;;29.70;38.03
66196;BME280;53000;45.182;5.736;2022-07-21T01:46:32;99586.94;;;29.68;38.16
66196;BME280;53000;45.182;5.736;2022-07-21T01:48:58;99582.25;;;29.64;38.33
66196;BME280;53000;45.182;5.736;2022-07-21T01:51:23;99587.56;;;29.60;38.17
66196;BME280;53000;45.182;5.736;2022-07-21T01:53:49;99587.31;;;29.51;38.64
66196;BME280;53000;45.182;5.736;2022-07-21T01:56:14;99582.06;;;29.45;38.83
66196;BME280;53000;45.182;5.736;2022-07-21T01:58:43;99579.28;;;29.45;38.73
66196;BME280;53000;45.182;5.736;2022-07-21T02:01:08;99584.03;;;29.44;38.36
66196;BME280;53000;45.182;5.736;2022-07-21T02:03:34;99586.53;;;29.41;39.27
66196;BME280;53000;45.182;5.736;2022-07-21T02:06:03;99580.41;;;29.39;38.73
66196;BME280;53000;45.182;5.736;2022-07-21T02:08:30;99580.41;;;29.39;38.46
66196;BME280;53000;45.182;5.736;2022-07-21T02:10:55;99579.59;;;29.38;38.54
66196;BME280;53000;45.182;5.736;2022-07-21T02:13:21;99578.75;;;29.38;38.68
66196;BME280;53000;45.182;5.736;2022-07-21T02:15:46;99572.34;;;29.37;38.98
66196;BME280;53000;45.182;5.736;2022-07-21T02:18:12;99579.88;;;29.36;38.87
66196;BME280;53000;45.182;5.736;2022-07-21T02:20:37;99585.16;;;29.38;39.15
66196;BME280;53000;45.182;5.736;2022-07-21T02:23:03;99580.41;;;29.39;38.70
66196;BME280;53000;45.182;5.736;2022-07-21T02:25:28;99577.63;;;29.39;38.54
66196;BME280;53000;45.182;5.736;2022-07-21T02:27:53;99586.53;;;29.41;38.42
66196;BME280;53000;45.182;5.736;2022-07-21T02:30:19;99586.00;;;29.44;38.68
66196;BME280;53000;45.182;5.736;2022-07-21T02:32:44;99584.34;;;29.38;38.89
66196;BME280;53000;45.182;5.736;2022-07-21T02:35:10;99588.50;;;29.35;38.69
66196;BME280;53000;45.182;5.736;2022-07-21T02:37:37;99579.63;;;29.33;38.89
66196;BME280;53000;45.182;5.736;2022-07-21T02:40:02;99585.50;;;29.31;38.76
66196;BME280;53000;45.182;5.736;2022-07-21T02:42:28;99578.25;;;29.25;39.08
66196;BME280;53000;45.182;5.736;2022-07-21T02:44:53;99577.44;;;29.20;39.35
66196;BME280;53000;45.182;5.736;2022-07-21T02:47:19;99577.19;;;29.16;39.29
66196;BME280;53000;45.182;5.736;2022-07-21T02:49:44;99571.06;;;29.14;39.76
66196;BME280;53000;45.182;5.736;2022-07-21T02:52:10;99576.06;;;29.07;39.85
66196;BME280;53000;45.182;5.736;2022-07-21T02:54:35;99573.59;;;29.05;39.81
66196;BME280;53000;45.182;5.736;2022-07-21T02:57:01;99577.75;;;29.08;39.18
66196;BME280;53000;45.182;5.736;2022-07-21T02:59:26;99575.78;;;29.08;39.55
66196;BME280;53000;45.182;5.736;2022-07-21T03:01:51;99573.84;;;29.09;39.10
66196;BME280;53000;45.182;5.736;2022-07-21T03:04:17;99571.63;;;29.06;39.44
66196;BME280;53000;45.182;5.736;2022-07-21T03:06:42;99566.88;;;29.06;39.56
66196;BME280;53000;45.182;5.736;2022-07-21T03:09:08;99573.03;;;29.03;39.97
66196;BME280;53000;45.182;5.736;2022-07-21T03:11:34;99572.72;;;29.05;39.47
66196;BME280;53000;45.182;5.736;2022-07-21T03:14:00;99569.38;;;29.03;39.50
66196;BME280;53000;45.182;5.736;2022-07-21T03:16:25;99577.19;;;29.01;39.18
66196;BME280;53000;45.182;5.736;2022-07-21T03:18:51;99573.31;;;29.02;39.24
66196;BME280;53000;45.182;5.736;2022-07-21T03:21:16;99578.06;;;29.01;39.25
66196;BME280;53000;45.182;5.736;2022-07-21T03:23:42;99583.06;;;28.99;39.42
66196;BME280;53000;45.182;5.736;2022-07-21T03:26:14;99582.25;;;28.99;39.56
66196;BME280;53000;45.182;5.736;2022-07-21T03:28:41;99587.25;;;29.02;39.47
66196;BME280;53000;45.182;5.736;2022-07-21T03:31:07;99589.75;;;29.03;39.02
66196;BME280;53000;45.182;5.736;2022-07-21T03:33:32;99585.00;;;29.04;38.96
66196;BME280;53000;45.182;5.736;2022-07-21T03:35:58;99591.69;;;29.08;38.80
66196;BME280;53000;45.182;5.736;2022-07-21T03:38:25;99588.06;;;29.07;39.06
66196;BME280;53000;45.182;5.736;2022-07-21T03:40:50;99593.66;;;29.07;38.90
66196;BME280;53000;45.182;5.736;2022-07-21T03:43:16;99589.19;;;29.06;39.15
66196;BME280;53000;45.182;5.736;2022-07-21T03:45:42;99593.09;;;29.05;39.18
66196;BME280;53000;45.182;5.736;2022-07-21T03:48:08;99593.38;;;29.04;38.70
66196;BME280;53000;45.182;5.736;2022-07-21T03:50:38;99599.78;;;29.04;38.69
66196;BME280;53000;45.182;5.736;2022-07-21T03:53:05;99606.72;;;29.07;38.78
66196;BME280;53000;45.182;5.736;2022-07-21T03:55:31;99599.22;;;29.07;38.72
66196;BME280;53000;45.182;5.736;2022-07-21T03:57:59;99597.53;;;29.06;38.38
66196;BME280;53000;45.182;5.736;2022-07-21T04:02:51;99606.72;;;29.07;38.53
66196;BME280;53000;45.182;5.736;2022-07-21T04:05:18;99599.22;;;29.07;38.74
66196;BME280;53000;45.182;5.736;2022-07-21T04:07:46;99604.78;;;29.07;38.62
66196;BME280;53000;45.182;5.736;2022-07-21T04:10:16;99600.31;;;29.06;38.74
66196;BME280;53000;45.182;5.736;2022-07-21T04:12:42;99603.13;;;29.06;38.18
66196;BME280;53000;45.182;5.736;2022-07-21T04:15:08;99598.09;;;29.08;38.41
66196;BME280;53000;45.182;5.736;2022-07-21T04:17:35;99607.28;;;29.09;38.23
66196;BME280;53000;45.182;5.736;2022-07-21T04:20:01;99605.38;;;29.09;38.51
66196;BME280;53000;45.182;5.736;2022-07-21T04:22:26;99598.09;;;29.08;38.68
66196;BME280;53000;45.182;5.736;2022-07-21T04:24:52;99593.09;;;29.10;38.37
66196;BME280;53000;45.182;5.736;2022-07-21T04:27:17;99594.19;;;29.04;38.52
66196;BME280;53000;45.182;5.736;2022-07-21T04:29:43;99590.59;;;29.04;38.20
66196;BME280;53000;45.182;5.736;2022-07-21T04:32:08;99599.22;;;29.07;38.20
66196;BME280;53000;45.182;5.736;2022-07-21T04:34:34;99596.13;;;29.09;38.19
66196;BME280;53000;45.182;5.736;2022-07-21T04:36:59;99595.88;;;29.10;38.45
66196;BME280;53000;45.182;5.736;2022-07-21T04:39:25;99599.78;;;29.14;38.23
66196;BME280;53000;45.182;5.736;2022-07-21T04:41:50;99593.66;;;29.07;38.47
66196;BME280;53000;45.182;5.736;2022-07-21T04:44:16;99595.06;;;29.10;38.31
66196;BME280;53000;45.182;5.736;2022-07-21T04:46:41;99597.25;;;29.13;38.16
66196;BME280;53000;45.182;5.736;2022-07-21T04:49:06;99602.84;;;29.13;38.89
66196;BME280;53000;45.182;5.736;2022-07-21T04:51:32;99602.00;;;29.12;38.87
66196;BME280;53000;45.182;5.736;2022-07-21T04:53:57;99606.44;;;29.13;39.03
66196;BME280;53000;45.182;5.736;2022-07-21T04:56:23;99605.91;;;29.11;39.07
66196;BME280;53000;45.182;5.736;2022-07-21T04:58:48;99603.13;;;29.11;39.63
66196;BME280;53000;45.182;5.736;2022-07-21T05:01:13;99601.19;;;29.12;39.88
66196;BME280;53000;45.182;5.736;2022-07-21T05:03:39;99598.38;;;29.07;39.55
66196;BME280;53000;45.182;5.736;2022-07-21T05:06:04;99604.78;;;29.07;39.45
66196;BME280;53000;45.182;5.736;2022-07-21T05:08:30;99597.53;;;29.06;39.83
66196;BME280;53000;45.182;5.736;2022-07-21T05:10:55;99600.31;;;29.06;39.70
66196;BME280;53000;45.182;5.736;2022-07-21T05:13:21;99605.34;;;29.04;39.89
66196;BME280;53000;45.182;5.736;2022-07-21T05:15:46;99599.22;;;29.02;39.69
66196;BME280;53000;45.182;5.736;2022-07-21T05:18:11;99611.50;;;29.01;39.70
66196;BME280;53000;45.182;5.736;2022-07-21T05:20:37;99608.16;;;28.99;39.32
66196;BME280;53000;45.182;5.736;2022-07-21T05:23:02;99605.91;;;28.96;39.30
66196;BME280;53000;45.182;5.736;2022-07-21T05:25:28;99607.59;;;28.97;39.01
66196;BME280;53000;45.182;5.736;2022-07-21T05:27:54;99616.25;;;28.95;39.36
66196;BME280;53000;45.182;5.736;2022-07-21T05:30:20;99609.00;;;28.94;39.45
66196;BME280;53000;45.182;5.736;2022-07-21T05:32:45;99614.03;;;28.92;39.18
66196;BME280;53000;45.182;5.736;2022-07-21T05:35:11;99616.28;;;28.90;38.95
66196;BME280;53000;45.182;5.736;2022-07-21T05:37:38;99605.41;;;28.89;39.58
66196;BME280;53000;45.182;5.736;2022-07-21T05:40:05;99607.59;;;28.92;39.31
66196;BME280;53000;45.182;5.736;2022-07-21T05:42:31;99611.81;;;28.94;39.23
66196;BME280;53000;45.182;5.736;2022-07-21T05:44:56;99611.81;;;28.94;38.92
66196;BME280;53000;45.182;5.736;2022-07-21T05:47:22;99615.97;;;28.92;39.31
66196;BME280;53000;45.182;5.736;2022-07-21T05:49:47;99618.47;;;28.93;39.08
66196;BME280;53000;45.182;5.736;2022-07-21T05:52:12;99617.09;;;28.91;39.40
66196;BME280;53000;45.182;5.736;2022-07-21T05:54:38;99620.72;;;28.91;39.24
66196;BME280;53000;45.182;5.736;2022-07-21T05:57:03;99623.50;;;28.91;39.50
66196;BME280;53000;45.182;5.736;2022-07-21T05:59:29;99627.97;;;28.92;39.56
66196;BME280;53000;45.182;5.736;2022-07-21T06:01:54;99622.41;;;28.92;39.31
66196;BME280;53000;45.182;5.736;2022-07-21T06:04:19;99631.31;;;28.94;39.54
66196;BME280;53000;45.182;5.736;2022-07-21T06:06:45;99632.69;;;28.97;39.22
66196;BME280;53000;45.182;5.736;2022-07-21T06:09:10;99637.13;;;28.98;39.05
66196;BME280;53000;45.182;5.736;2022-07-21T06:11:36;99637.13;;;28.98;39.02
66196;BME280;53000;45.182;5.736;2022-07-21T06:14:01;99641.31;;;28.95;39.15
66196;BME280;53000;45.182;5.736;2022-07-21T06:16:26;99639.09;;;28.98;39.33
66196;BME280;53000;45.182;5.736;2022-07-21T06:18:52;99639.66;;;29.00;39.29
66196;BME280;53000;45.182;5.736;2022-07-21T06:21:17;99642.16;;;29.01;38.93
66196;BME280;53000;45.182;5.736;2022-07-21T06:23:43;99644.09;;;29.06;38.70
66196;BME280;53000;45.182;5.736;2022-07-21T06:26:09;99649.97;;;29.09;38.75
66196;BME280;53000;45.182;5.736;2022-07-21T06:28:35;99642.44;;;29.10;38.85
66196;BME280;53000;45.182;5.736;2022-07-21T06:31:00;99653.00;;;29.13;38.90
66196;BME280;53000;45.182;5.736;2022-07-21T06:33:25;99661.66;;;29.11;38.71
66196;BME280;53000;45.182;5.736;2022-07-21T06:35:51;99654.69;;;29.14;38.99
66196;BME280;53000;45.182;5.736;2022-07-21T06:38:17;99659.69;;;29.17;38.84
66196;BME280;53000;45.182;5.736;2022-07-21T06:40:42;99653.00;;;29.18;38.86
66196;BME280;53000;45.182;5.736;2022-07-21T06:43:07;99662.47;;;29.22;38.64
66196;BME280;53000;45.182;5.736;2022-07-21T06:45:33;99663.56;;;29.26;38.70
66196;BME280;53000;45.182;5.736;2022-07-21T06:48:08;99661.63;;;29.27;38.75
66196;BME280;53000;45.182;5.736;2022-07-21T06:50:34;99664.41;;;29.22;38.72
66196;BME280;53000;45.182;5.736;2022-07-21T06:53:00;99657.72;;;29.18;38.98
66196;BME280;53000;45.182;5.736;2022-07-21T06:55:26;99661.38;;;29.18;38.55
66196;BME280;53000;45.182;5.736;2022-07-21T06:57:52;99673.63;;;29.22;38.05
66196;BME280;53000;45.182;5.736;2022-07-21T07:00:18;99662.72;;;29.26;38.45
66196;BME280;53000;45.182;5.736;2022-07-21T07:02:44;99664.94;;;29.34;38.58
66196;BME280;53000;45.182;5.736;2022-07-21T07:05:09;99662.97;;;29.40;38.48
66196;BME280;53000;45.182;5.736;2022-07-21T07:07:35;99667.41;;;29.46;38.45
66196;BME280;53000;45.182;5.736;2022-07-21T07:10:00;99664.03;;;29.49;38.69
66196;BME280;53000;45.182;5.736;2022-07-21T07:12:27;99665.97;;;29.53;37.90
66196;BME280;53000;45.182;5.736;2022-07-21T07:14:53;99660.13;;;29.55;38.09
66196;BME280;53000;45.182;5.736;2022-07-21T07:17:18;99657.00;;;29.62;38.03
66196;BME280;53000;45.182;5.736;2022-07-21T07:19:45;99654.72;;;29.69;37.97
66196;BME280;53000;45.182;5.736;2022-07-21T07:22:11;99662.53;;;29.77;37.82
66196;BME280;53000;45.182;5.736;2022-07-21T07:24:36;99654.41;;;29.86;38.21
66196;BME280;53000;45.182;5.736;2022-07-21T07:27:02;99657.16;;;29.91;37.42
66196;BME280;53000;45.182;5.736;2022-07-21T07:29:27;99663.00;;;29.94;37.80
66196;BME280;53000;45.182;5.736;2022-07-21T07:31:54;99661.56;;;29.97;37.52
66196;BME280;53000;45.182;5.736;2022-07-21T07:34:20;99650.41;;;29.97;36.72
66196;BME280;53000;45.182;5.736;2022-07-21T07:36:45;99654.88;;;29.98;36.88
66196;BME280;53000;45.182;5.736;2022-07-21T07:39:11;99649.03;;;29.94;36.93
66196;BME280;53000;45.182;5.736;2022-07-21T07:41:37;99652.09;;;29.98;36.63
66196;BME280;53000;45.182;5.736;2022-07-21T07:44:02;99650.41;;;29.97;36.64
66196;BME280;53000;45.182;5.736;2022-07-21T07:46:28;99648.50;;;29.92;36.79
66196;BME280;53000;45.182;5.736;2022-07-21T07:48:53;99652.19;;;29.83;36.53
66196;BME280;53000;45.182;5.736;2022-07-21T07:51:20;99645.50;;;29.79;36.99
66196;BME280;53000;45.182;5.736;2022-07-21T07:53:45;99653.84;;;30.63;36.52
66196;BME280;53000;45.182;5.736;2022-07-21T07:56:10;99642.47;;;32.55;33.65
66196;BME280;53000;45.182;5.736;2022-07-21T07:58:36;99643.28;;;34.45;30.58
66196;BME280;53000;45.182;5.736;2022-07-21T08:01:02;99644.47;;;36.12;26.85
66196;BME280;53000;45.182;5.736;2022-07-21T08:03:28;99639.16;;;37.57;25.84
66196;BME280;53000;45.182;5.736;2022-07-21T08:05:55;99635.44;;;38.83;26.19
66196;BME280;53000;45.182;5.736;2022-07-21T08:08:21;99650.56;;;40.10;25.25
66196;BME280;53000;45.182;5.736;2022-07-21T08:10:48;99644.66;;;41.16;24.26
66196;BME280;53000;45.182;5.736;2022-07-21T08:13:15;99642.41;;;41.92;22.56
66196;BME280;53000;45.182;5.736;2022-07-21T08:15:42;99641.16;;;42.44;22.30
66196;BME280;53000;45.182;5.736;2022-07-21T08:18:08;99640.84;;;42.92;21.62
66196;BME280;53000;45.182;5.736;2022-07-21T08:20:35;99641.41;;;43.47;17.56
66196;BME280;53000;45.182;5.736;2022-07-21T08:23:01;99644.25;;;43.74;18.55
66196;BME280;53000;45.182;5.736;2022-07-21T08:25:26;99641.66;;;43.92;18.58
66196;BME280;53000;45.182;5.736;2022-07-21T08:27:52;99637.06;;;44.10;19.92
66196;BME280;53000;45.182;5.736;2022-07-21T08:30:17;99634.13;;;44.37;19.21
66196;BME280;53000;45.182;5.736;2022-07-21T08:32:43;99636.34;;;44.51;17.84
66196;BME280;53000;45.182;5.736;2022-07-21T08:35:09;99633.22;;;44.63;18.42
66196;BME280;53000;45.182;5.736;2022-07-21T08:37:35;99625.84;;;44.62;18.93
66196;BME280;53000;45.182;5.736;2022-07-21T08:40:02;99624.59;;;44.60;18.84
66196;BME280;53000;45.182;5.736;2022-07-21T08:42:29;99612.44;;;44.33;17.59
66196;BME280;53000;45.182;5.736;2022-07-21T08:44:54;99617.50;;;43.82;17.15
66196;BME280;53000;45.182;5.736;2022-07-21T08:47:20;99612.81;;;43.17;18.37
66196;BME280;53000;45.182;5.736;2022-07-21T08:49:46;99611.56;;;42.49;19.15
66196;BME280;53000;45.182;5.736;2022-07-21T08:52:12;99611.78;;;42.01;20.16
66196;BME280;53000;45.182;5.736;2022-07-21T08:54:38;99610.44;;;41.60;20.40
66196;BME280;53000;45.182;5.736;2022-07-21T08:57:04;99601.88;;;41.24;19.32
66196;BME280;53000;45.182;5.736;2022-07-21T08:59:29;99599.44;;;41.11;21.34
66196;BME280;53000;45.182;5.736;2022-07-21T09:01:55;99603.41;;;41.22;20.75
66196;BME280;53000;45.182;5.736;2022-07-21T09:04:29;99594.72;;;41.15;19.71
66196;BME280;53000;45.182;5.736;2022-07-21T09:07:00;99604.31;;;41.10;20.75
66196;BME280;53000;45.182;5.736;2022-07-21T09:09:28;99598.56;;;41.22;20.45
66196;BME280;53000;45.182;5.736;2022-07-21T09:11:54;99601.66;;;41.33;20.23
66196;BME280;53000;45.182;5.736;2022-07-21T09:14:26;99601.72;;;41.37;19.45
66196;BME280;53000;45.182;5.736;2022-07-21T09:16:55;99600.47;;;41.34;20.67
66196;BME280;53000;45.182;5.736;2022-07-21T09:19:43;99591.56;;;41.36;20.31
66196;BME280;53000;45.182;5.736;2022-07-21T09:22:15;99595.28;;;41.20;19.44
66196;BME280;53000;45.182;5.736;2022-07-21T09:24:48;99593.59;;;41.03;19.77
66196;BME280;53000;45.182;5.736;2022-07-21T09:29:57;99582.78;;;41.09;19.76
66196;BME280;53000;45.182;5.736;2022-07-21T09:32:30;99582.88;;;41.13;20.89
66196;BME280;53000;45.182;5.736;2022-07-21T09:35:00;99579.16;;;41.24;20.74
66196;BME280;53000;45.182;5.736;2022-07-21T09:37:26;99574.09;;;41.18;20.06
66196;BME280;53000;45.182;5.736;2022-07-21T09:40:00;99579.41;;;41.19;20.04
66196;BME280;53000;45.182;5.736;2022-07-21T09:42:31;99577.31;;;41.16;20.38
66196;BME280;53000;45.182;5.736;2022-07-21T09:45:06;99566.06;;;40.88;20.86
66196;BME280;53000;45.182;5.736;2022-07-21T09:47:33;99562.03;;;40.73;19.77
66196;BME280;53000;45.182;5.736;2022-07-21T09:50:00;99561.50;;;40.55;20.03
66196;BME280;53000;45.182;5.736;2022-07-21T09:52:33;99565.16;;;40.27;20.52
66196;BME280;53000;45.182;5.736;2022-07-21T09:55:02;99548.81;;;39.93;21.13
66196;BME280;53000;45.182;5.736;2022-07-21T09:57:29;99548.09;;;39.83;21.65
66196;BME280;53000;45.182;5.736;2022-07-21T09:59:55;99547.53;;;39.90;21.75
66196;BME280;53000;45.182;5.736;2022-07-21T10:02:22;99544.88;;;39.97;21.64
66196;BME280;53000;45.182;5.736;2022-07-21T10:04:57;99544.66;;;40.18;22.12
66196;BME280;53000;45.182;5.736;2022-07-21T10:07:23;99538.53;;;40.16;21.62
66196;BME280;53000;45.182;5.736;2022-07-21T10:09:49;99538.59;;;40.04;21.45
66196;BME280;53000;45.182;5.736;2022-07-21T10:12:17;99540.44;;;39.84;21.29
66196;BME280;53000;45.182;5.736;2022-07-21T10:14:43;99539.78;;;39.62;21.50
66196;BME280;53000;45.182;5.736;2022-07-21T10:17:09;99536.03;;;39.46;21.58
66196;BME280;53000;45.182;5.736;2022-07-21T10:19:42;99529.69;;;39.24;22.23
66196;BME280;53000;45.182;5.736;2022-07-21T10:25:14;99523.53;;;38.61;22.42
66196;BME280;53000;45.182;5.736;2022-07-21T10:33:04;99504.94;;;37.93;23.30
66196;BME280;53000;45.182;5.736;2022-07-21T10:35:31;99509.38;;;37.94;23.56
66196;BME280;53000;45.182;5.736;2022-07-21T10:37:58;99501.84;;;37.86;23.62
66196;BME280;53000;45.182;5.736;2022-07-21T10:45:33;99499.03;;;37.65;23.68
66196;BME280;53000;45.182;5.736;2022-07-21T10:48:01;99500.31;;;37.47;23.68
66196;BME280;53000;45.182;5.736;2022-07-21T10:50:34;99496.25;;;37.35;23.95
66196;BME280;53000;45.182;5.736;2022-07-21T10:55:31;99494.59;;;37.13;24.38
66196;BME280;53000;45.182;5.736;2022-07-21T11:00:58;99480.22;;;37.27;24.10
66196;BME280;53000;45.182;5.736;2022-07-21T11:06:14;99478.63;;;37.38;24.36
66196;BME280;53000;45.182;5.736;2022-07-21T11:08:45;99480.78;;;37.41;24.09
66196;BME280;53000;45.182;5.736;2022-07-21T11:21:57;99455.06;;;37.55;24.30
66196;BME280;53000;45.182;5.736;2022-07-21T11:24:23;99453.84;;;37.65;24.30
66196;BME280;53000;45.182;5.736;2022-07-21T11:26:59;99439.97;;;37.72;23.92
66196;BME280;53000;45.182;5.736;2022-07-21T11:29:25;99438.13;;;37.76;23.87
66196;BME280;53000;45.182;5.736;2022-07-21T11:31:51;99440.75;;;37.81;24.16
66196;BME280;53000;45.182;5.736;2022-07-21T11:34:17;99441.19;;;37.83;23.71
66196;BME280;53000;45.182;5.736;2022-07-21T11:36:43;99435.09;;;37.81;24.10
66196;BME280;53000;45.182;5.736;2022-07-21T11:39:13;99429.53;;;37.85;24.00
66196;BME280;53000;45.182;5.736;2022-07-21T11:41:41;99431.56;;;37.84;24.23
66196;BME280;53000;45.182;5.736;2022-07-21T11:44:10;99425.09;;;37.84;24.00
66196;BME280;53000;45.182;5.736;2022-07-21T11:46:53;99421.50;;;37.75;24.03
66196;BME280;53000;45.182;5.736;2022-07-21T11:49:19;99411.81;;;37.63;23.92
66196;BME280;53000;45.182;5.736;2022-07-21T11:51:56;99407.75;;;37.52;24.20
66196;BME280;53000;45.182;5.736;2022-07-21T11:57:09;99403.84;;;37.44;24.70
66196;BME280;53000;45.182;5.736;2022-07-21T11:59:36;99394.47;;;37.53;24.22
66196;BME280;53000;45.182;5.736;2022-07-21T12:02:27;99390.09;;;37.55;24.33
66196;BME280;53000;45.182;5.736;2022-07-21T12:05:01;99388.19;;;37.47;24.34
66196;BME280;53000;45.182;5.736;2022-07-21T12:10:21;99389.47;;;37.58;24.94
66196;BME280;53000;45.182;5.736;2022-07-21T12:12:48;99386.25;;;37.60;24.44
66196;BME280;53000;45.182;5.736;2022-07-21T12:15:20;99376.06;;;37.68;24.22
66196;BME280;53000;45.182;5.736;2022-07-21T12:17:51;99375.81;;;37.73;24.35
66196;BME280;53000;45.182;5.736;2022-07-21T12:20:26;99379.88;;;37.84;24.34
66196;BME280;53000;45.182;5.736;2022-07-21T12:22:54;99360.22;;;37.88;23.70
66196;BME280;53000;45.182;5.736;2022-07-21T12:25:34;99359.28;;;37.96;24.31
66196;BME280;53000;45.182;5.736;2022-07-21T12:28:00;99369.63;;;37.92;24.05
66196;BME280;53000;45.182;5.736;2022-07-21T12:30:48;99360.78;;;37.81;23.89
66196;BME280;53000;45.182;5.736;2022-07-21T12:33:19;99355.47;;;37.67;24.34
66196;BME280;53000;45.182;5.736;2022-07-21T12:35:58;99349.97;;;37.50;24.42
66196;BME280;53000;45.182;5.736;2022-07-21T12:38:38;99341.13;;;37.39;24.92
66196;BME280;53000;45.182;5.736;2022-07-21T12:41:05;99334.09;;;37.45;24.89
66196;BME280;53000;45.182;5.736;2022-07-21T12:43:30;99329.78;;;37.60;24.39
66196;BME280;53000;45.182;5.736;2022-07-21T12:46:01;99343.84;;;37.69;24.05
66196;BME280;53000;45.182;5.736;2022-07-21T12:48:32;99335.22;;;37.65;23.98
66196;BME280;53000;45.182;5.736;2022-07-21T12:51:03;99326.66;;;37.74;24.34
66196;BME280;53000;45.182;5.736;2022-07-21T12:53:31;99330.66;;;37.85;23.92
66196;BME280;53000;45.182;5.736;2022-07-21T12:55:58;99331.94;;;37.88;24.22
66196;BME280;53000;45.182;5.736;2022-07-21T12:58:23;99314.31;;;37.91;23.62
66196;BME280;53000;45.182;5.736;2022-07-21T13:00:49;99316.91;;;37.96;23.76
66196;BME280;53000;45.182;5.736;2022-07-21T13:03:15;99316.91;;;37.96;23.77
66196;BME280;53000;45.182;5.736;2022-07-21T13:05:40;99315.84;;;38.00;23.69
66196;BME280;53000;45.182;5.736;2022-07-21T13:08:06;99317.28;;;38.07;23.51
66196;BME280;53000;45.182;5.736;2022-07-21T13:10:31;99316.81;;;38.04;23.68
66196;BME280;53000;45.182;5.736;2022-07-21T13:12:57;99306.69;;;38.03;23.74
66196;BME280;53000;45.182;5.736;2022-07-21T13:15:22;99302.47;;;38.10;23.55
66196;BME280;53000;45.182;5.736;2022-07-21T13:17:48;99307.41;;;38.25;23.58
66196;BME280;53000;45.182;5.736;2022-07-21T13:20:14;99298.66;;;38.42;23.41
66196;BME280;53000;45.182;5.736;2022-07-21T13:22:39;99296.41;;;38.48;22.44
66196;BME280;53000;45.182;5.736;2022-07-21T13:25:06;99290.66;;;38.44;22.94
66196;BME280;53000;45.182;5.736;2022-07-21T13:27:32;99293.59;;;38.48;22.39
66196;BME280;53000;45.182;5.736;2022-07-21T13:29:57;99306.78;;;38.44;22.58
66196;BME280;53000;45.182;5.736;2022-07-21T13:32:23;99303.03;;;38.40;22.60
66196;BME280;53000;45.182;5.736;2022-07-21T13:34:48;99290.91;;;38.39;22.53
66196;BME280;53000;45.182;5.736;2022-07-21T13:37:14;99289.72;;;38.40;22.07
66196;BME280;53000;45.182;5.736;2022-07-21T13:39:40;99293.13;;;38.34;22.05
66196;BME280;53000;45.182;5.736;2022-07-21T13:42:06;99283.00;;;38.33;22.22